Time;durP1;ratioP1;P1;durP2;ratioP2;P2;SDS_P1;SDS_P2;PMS_P1;PMS_P2;Temp;Humidity;BMP_temperature;BMP_pressure;BME280_temperature;BME280_humidity;BME280_pressure;Samples;Min_cycle;Max_cycle;Signal;HPM_P1;HPM_P2
2023/08/13 00:01:11;;;;;;;10.40;2.95;;;17.70;99.90;;;;;;4992482;28;20455;-63
2023/08/13 00:03:37;;;;;;;8.32;2.90;;;17.70;99.90;;;;;;4993095;28;20050;-62
2023/08/13 00:06:05;;;;;;;16.70;3.80;;;17.70;99.90;;;;;;4992127;28;20367;-62
2023/08/13 00:08:32;;;;;;;9.02;2.85;;;17.70;99.90;;;;;;4992556;28;20046;-63
2023/08/13 00:10:58;;;;;;;8.38;3.13;;;17.70;99.90;;;;;;4992627;28;20054;-63
2023/08/13 00:13:24;;;;;;;10.27;3.75;;;17.70;99.90;;;;;;4992836;28;20054;-62
2023/08/13 00:15:50;;;;;;;10.88;3.33;;;17.70;99.90;;;;;;4992376;28;20748;-62
2023/08/13 00:18:16;;;;;;;12.25;3.55;;;17.70;99.90;;;;;;4992215;28;20391;-62
2023/08/13 00:20:44;;;;;;;9.82;3.83;;;17.70;99.90;;;;;;4975022;28;20103;-62
2023/08/13 00:23:12;;;;;;;12.32;3.20;;;17.60;99.90;;;;;;4992530;28;20127;-62
2023/08/13 00:25:38;;;;;;;8.95;3.00;;;17.60;99.90;;;;;;4992134;28;20121;-62
2023/08/13 00:28:05;;;;;;;10.85;3.47;;;17.60;99.90;;;;;;4991834;28;20324;-62
2023/08/13 00:30:31;;;;;;;11.75;3.05;;;17.60;99.90;;;;;;4992662;28;20050;-62
2023/08/13 00:32:57;;;;;;;9.50;3.22;;;17.50;99.90;;;;;;4992960;28;20054;-63
2023/08/13 00:35:23;;;;;;;8.15;4.03;;;17.40;99.90;;;;;;4992253;28;20055;-62
2023/08/13 00:37:49;;;;;;;12.00;3.45;;;17.50;99.90;;;;;;4992149;28;20347;-62
2023/08/13 00:40:16;;;;;;;12.18;3.63;;;17.40;99.90;;;;;;4992014;28;20121;-62
2023/08/13 00:42:42;;;;;;;13.35;3.47;;;17.40;99.90;;;;;;4991968;28;20077;-62
2023/08/13 00:45:10;;;;;;;11.65;3.30;;;17.40;99.90;;;;;;5005904;28;20054;-61
2023/08/13 00:47:37;;;;;;;16.55;4.03;;;17.30;99.90;;;;;;4993926;28;20045;-61
2023/08/13 00:50:05;;;;;;;12.02;3.97;;;17.20;99.90;;;;;;4994024;28;20060;-62
2023/08/13 00:52:33;;;;;;;15.68;3.85;;;17.20;99.90;;;;;;4993908;28;20054;-63
2023/08/13 00:54:59;;;;;;;12.85;3.75;;;17.30;99.90;;;;;;5011335;28;20066;-62
2023/08/13 00:57:25;;;;;;;8.43;3.30;;;17.30;99.90;;;;;;5011251;28;20112;-63
2023/08/13 00:59:52;;;;;;;10.20;3.08;;;17.20;99.90;;;;;;5011272;28;20046;-63
2023/08/13 01:02:21;;;;;;;12.38;3.13;;;17.20;99.90;;;;;;5011362;28;20109;-63
2023/08/13 01:04:48;;;;;;;9.00;3.00;;;17.00;99.90;;;;;;5010649;28;20113;-63
2023/08/13 01:07:23;;;;;;;10.27;2.90;;;17.20;99.90;;;;;;4996182;28;20054;-62
2023/08/13 01:10:09;;;;;;;12.48;3.33;;;17.20;99.90;;;;;;4981065;28;20050;-62
2023/08/13 01:12:40;;;;;;;11.50;3.45;;;17.10;99.90;;;;;;4998222;28;20354;-63
2023/08/13 01:15:41;;;;;;;7.60;3.05;;;17.10;99.90;;;;;;4997628;28;20051;-62
2023/08/13 01:18:09;;;;;;;9.93;3.05;;;17.10;99.90;;;;;;4996724;28;20332;-63
2023/08/13 01:20:39;;;;;;;10.52;2.75;;;17.10;99.90;;;;;;4999823;28;20343;-64
2023/08/13 01:23:05;;;;;;;8.65;3.15;;;17.00;99.90;;;;;;5018103;28;20120;-63
2023/08/13 01:25:32;;;;;;;8.80;3.45;;;17.00;99.90;;;;;;4999889;28;20101;-63
2023/08/13 01:28:18;;;;;;;11.07;3.22;;;17.00;99.90;;;;;;4999736;28;20041;-64
2023/08/13 01:31:14;;;;;;;12.07;3.35;;;16.90;99.90;;;;;;5018118;28;20124;-63
2023/08/13 01:33:42;;;;;;;9.82;3.50;;;17.00;99.90;;;;;;4982186;28;20058;-63
2023/08/13 01:36:09;;;;;;;11.02;3.13;;;16.90;99.90;;;;;;5016667;28;20123;-62
2023/08/13 01:38:36;;;;;;;11.27;3.65;;;16.90;99.90;;;;;;5000075;28;20137;-61
2023/08/13 01:41:03;;;;;;;11.38;3.63;;;16.90;99.90;;;;;;5017773;28;20053;-64
2023/08/13 01:43:30;;;;;;;11.25;3.22;;;16.90;99.90;;;;;;5016072;28;20525;-62
2023/08/13 01:46:01;;;;;;;10.00;3.50;;;16.90;99.90;;;;;;4997704;28;20061;-62
2023/08/13 01:48:28;;;;;;;11.60;3.50;;;16.80;99.90;;;;;;4965069;28;20050;-62
2023/08/13 01:50:54;;;;;;;9.65;4.05;;;16.80;99.90;;;;;;4997569;28;20120;-61
2023/08/13 01:53:23;;;;;;;10.70;3.67;;;16.70;99.90;;;;;;4997586;28;20156;-63
2023/08/13 01:55:49;;;;;;;10.27;3.95;;;16.80;99.90;;;;;;4997626;28;20065;-62
2023/08/13 01:58:15;;;;;;;10.10;3.47;;;16.80;99.90;;;;;;4996946;28;20054;-62
2023/08/13 02:00:42;;;;;;;11.70;3.85;;;16.70;99.90;;;;;;4997801;28;20105;-62
2023/08/13 02:03:10;;;;;;;9.40;3.38;;;16.80;99.90;;;;;;4997907;28;20172;-62
2023/08/13 02:05:36;;;;;;;13.13;4.13;;;16.70;99.90;;;;;;4980089;28;20054;-63
2023/08/13 02:08:02;;;;;;;9.60;3.72;;;16.80;99.90;;;;;;4994289;28;20061;-62
2023/08/13 02:10:29;;;;;;;9.57;3.97;;;16.60;99.90;;;;;;4980335;28;20497;-61
2023/08/13 02:12:55;;;;;;;11.13;3.90;;;16.70;99.90;;;;;;4998053;28;20054;-61
2023/08/13 02:15:21;;;;;;;14.48;4.05;;;16.70;99.90;;;;;;4997659;28;20188;-62
2023/08/13 02:17:47;;;;;;;9.63;3.45;;;16.70;99.90;;;;;;4993886;28;20070;-63
2023/08/13 02:20:14;;;;;;;9.57;3.80;;;16.60;99.90;;;;;;4994409;28;20106;-62
2023/08/13 02:22:40;;;;;;;13.45;3.88;;;16.60;99.90;;;;;;4994479;28;20081;-62
2023/08/13 02:25:06;;;;;;;9.35;3.63;;;16.70;99.90;;;;;;4987181;28;20046;-63
2023/08/13 02:27:33;;;;;;;10.98;3.42;;;16.70;99.90;;;;;;4994044;28;20058;-62
2023/08/13 02:29:59;;;;;;;11.23;3.58;;;16.60;99.90;;;;;;4994573;28;20051;-61
2023/08/13 02:32:25;;;;;;;11.18;3.95;;;16.60;99.90;;;;;;4993934;28;20495;-62
2023/08/13 02:34:52;;;;;;;9.90;3.45;;;16.60;99.90;;;;;;4976210;28;20416;-61
2023/08/13 02:37:18;;;;;;;10.75;3.67;;;16.60;99.90;;;;;;4993860;28;20049;-62
2023/08/13 02:40:17;;;;;;;9.95;3.55;;;16.60;99.90;;;;;;4994120;28;20120;-63
2023/08/13 02:42:43;;;;;;;11.40;3.53;;;16.60;99.90;;;;;;4994002;28;20050;-62
2023/08/13 02:45:09;;;;;;;10.82;3.15;;;16.50;99.90;;;;;;4993494;28;20076;-62
2023/08/13 02:47:36;;;;;;;10.52;3.60;;;16.50;99.90;;;;;;4993897;28;20420;-63
2023/08/13 02:50:02;;;;;;;13.45;3.75;;;16.50;99.90;;;;;;4994273;28;20100;-62
2023/08/13 02:52:28;;;;;;;9.90;3.25;;;16.40;99.90;;;;;;4994225;28;20050;-63
2023/08/13 02:54:56;;;;;;;9.75;3.42;;;16.40;99.90;;;;;;4992759;28;20459;-62
2023/08/13 02:57:22;;;;;;;10.73;3.35;;;16.30;99.90;;;;;;4993497;28;20305;-63
2023/08/13 02:59:48;;;;;;;12.30;3.40;;;16.40;99.90;;;;;;4976562;28;20490;-61
2023/08/13 03:02:16;;;;;;;9.23;3.33;;;16.30;99.90;;;;;;4994067;28;20050;-61
2023/08/13 03:04:43;;;;;;;11.10;3.42;;;16.30;99.90;;;;;;4976373;28;20062;-63
2023/08/13 03:07:09;;;;;;;13.07;3.80;;;16.30;99.90;;;;;;4993478;28;20046;-61
2023/08/13 03:09:35;;;;;;;8.82;3.28;;;16.30;99.90;;;;;;4993830;28;20054;-62
2023/08/13 03:12:01;;;;;;;8.57;3.17;;;16.20;99.90;;;;;;4993603;28;20545;-63
2023/08/13 03:14:28;;;;;;;7.70;3.25;;;16.20;99.90;;;;;;4993433;28;20054;-62
2023/08/13 03:16:54;;;;;;;9.80;3.38;;;16.20;99.90;;;;;;4993227;28;20542;-62
2023/08/13 03:19:20;;;;;;;9.25;3.47;;;16.20;99.90;;;;;;4976056;28;20137;-62
2023/08/13 03:21:46;;;;;;;8.80;3.13;;;16.20;99.90;;;;;;4993114;28;20050;-61
2023/08/13 03:24:14;;;;;;;13.30;3.92;;;16.10;99.90;;;;;;4975820;28;20061;-62
2023/08/13 03:26:41;;;;;;;14.15;3.97;;;16.10;99.90;;;;;;4975830;28;20526;-62
2023/08/13 03:29:07;;;;;;;9.80;3.50;;;16.10;99.90;;;;;;4976041;28;20050;-62
2023/08/13 03:31:34;;;;;;;8.82;3.50;;;16.10;99.90;;;;;;4993328;28;20050;-62
2023/08/13 03:34:03;;;;;;;7.40;3.35;;;16.00;99.90;;;;;;4992987;28;20422;-63
2023/08/13 03:36:30;;;;;;;8.48;3.50;;;16.10;99.90;;;;;;4975913;28;20050;-62
2023/08/13 03:38:56;;;;;;;8.35;3.65;;;16.10;99.90;;;;;;4993504;28;20058;-63
2023/08/13 03:41:23;;;;;;;9.40;3.40;;;16.00;99.90;;;;;;4975829;28;20386;-62
2023/08/13 03:43:50;;;;;;;8.90;3.42;;;16.00;99.90;;;;;;4997028;28;20062;-62
2023/08/13 03:46:16;;;;;;;14.32;3.95;;;16.00;99.90;;;;;;5012184;28;20054;-62
2023/08/13 03:48:43;;;;;;;10.48;3.92;;;16.00;99.90;;;;;;4993947;28;20093;-63
2023/08/13 03:51:09;;;;;;;10.05;3.30;;;15.90;99.90;;;;;;5012533;28;20583;-62
2023/08/13 03:53:35;;;;;;;13.32;3.83;;;16.10;99.90;;;;;;4995206;28;20045;-63
2023/08/13 03:56:05;;;;;;;8.65;3.80;;;16.00;99.90;;;;;;4994921;28;20042;-63
2023/08/13 03:58:31;;;;;;;11.43;4.40;;;16.10;99.90;;;;;;4994104;28;20076;-63
2023/08/13 04:01:04;;;;;;;9.35;3.70;;;16.20;99.90;;;;;;5006288;28;20190;-63
2023/08/13 04:03:31;;;;;;;10.65;3.65;;;16.10;99.90;;;;;;4992686;28;20439;-62
2023/08/13 04:05:58;;;;;;;7.90;3.92;;;16.20;99.90;;;;;;4974500;28;20046;-62
2023/08/13 04:08:24;;;;;;;10.50;3.90;;;16.20;99.90;;;;;;4992981;28;20066;-62
2023/08/13 04:10:53;;;;;;;12.20;4.05;;;16.20;99.90;;;;;;4991920;28;20042;-62
2023/08/13 04:13:20;;;;;;;14.27;4.07;;;16.20;99.90;;;;;;4975335;28;20050;-62
2023/08/13 04:15:46;;;;;;;11.35;4.15;;;16.30;99.90;;;;;;5007440;28;20134;-62
2023/08/13 04:18:12;;;;;;;9.85;3.75;;;16.30;99.90;;;;;;5011021;28;20065;-62
2023/08/13 04:20:41;;;;;;;7.32;3.95;;;16.30;99.90;;;;;;5011490;28;20430;-61
2023/08/13 04:23:26;;;;;;;9.32;4.10;;;16.40;99.90;;;;;;4978901;28;20047;-62
2023/08/13 04:25:52;;;;;;;9.15;3.78;;;16.40;99.90;;;;;;4990329;28;20053;-62
2023/08/13 04:28:18;;;;;;;10.63;4.50;;;16.30;99.90;;;;;;4993699;28;20057;-62
2023/08/13 04:30:45;;;;;;;10.70;4.38;;;16.30;99.90;;;;;;4992441;28;20072;-62
2023/08/13 04:33:11;;;;;;;10.52;4.30;;;16.40;99.90;;;;;;4992494;28;20196;-62
2023/08/13 04:35:37;;;;;;;13.25;4.07;;;16.40;99.90;;;;;;4992084;28;20046;-63
2023/08/13 04:38:04;;;;;;;11.57;4.63;;;16.50;99.90;;;;;;4996546;28;20061;-63
2023/08/13 04:40:30;;;;;;;12.15;4.53;;;16.50;99.90;;;;;;4992543;28;20386;-63
2023/08/13 04:42:57;;;;;;;11.73;4.18;;;16.40;99.90;;;;;;4991736;28;20427;-63
2023/08/13 04:45:24;;;;;;;11.20;4.18;;;16.50;99.90;;;;;;4991884;28;20493;-62
2023/08/13 04:47:50;;;;;;;11.50;4.07;;;16.50;99.90;;;;;;4991459;28;20117;-62
2023/08/13 04:50:22;;;;;;;12.02;3.70;;;16.50;99.90;;;;;;4991656;28;20057;-63
2023/08/13 04:53:21;;;;;;;10.80;3.67;;;16.50;99.90;;;;;;4989436;28;20046;-63
2023/08/13 04:55:48;;;;;;;10.95;4.03;;;16.50;99.90;;;;;;5004542;28;20130;-63
2023/08/13 04:58:15;;;;;;;10.02;3.75;;;16.50;99.90;;;;;;4992312;28;20046;-63
2023/08/13 05:00:41;;;;;;;10.95;3.75;;;16.50;99.90;;;;;;4992210;28;20066;-64
2023/08/13 05:03:40;;;;;;;13.32;4.47;;;16.70;99.90;;;;;;4984379;28;20109;-63
2023/08/13 05:06:06;;;;;;;6.85;3.53;;;17.10;99.90;;;;;;4991340;28;20042;-63
2023/08/13 05:08:33;;;;;;;7.88;4.13;;;17.20;99.90;;;;;;4991750;28;20366;-63
2023/08/13 05:11:05;;;;;;;10.18;3.95;;;17.30;99.90;;;;;;4992300;28;20043;-62
2023/08/13 05:13:31;;;;;;;10.52;4.35;;;17.20;99.90;;;;;;5006991;28;20108;-62
2023/08/13 05:15:58;;;;;;;8.85;3.80;;;17.20;99.90;;;;;;4993304;28;20153;-62
2023/08/13 05:18:24;;;;;;;9.93;3.78;;;17.20;99.90;;;;;;4992225;28;20364;-63
2023/08/13 05:20:50;;;;;;;12.02;4.60;;;17.20;99.90;;;;;;5009498;28;20050;-63
2023/08/13 05:23:17;;;;;;;7.15;4.15;;;17.30;99.90;;;;;;5011874;28;20054;-63
2023/08/13 05:25:44;;;;;;;10.93;3.65;;;17.20;99.90;;;;;;4994666;28;20060;-63
2023/08/13 05:28:10;;;;;;;9.70;3.67;;;17.40;99.90;;;;;;5005526;28;20054;-62
2023/08/13 05:30:39;;;;;;;10.05;3.47;;;17.80;99.90;;;;;;4992770;28;20054;-63
2023/08/13 05:33:05;;;;;;;10.43;3.78;;;18.10;99.90;;;;;;4991971;28;20489;-62
2023/08/13 05:35:32;;;;;;;12.55;3.72;;;18.20;99.90;;;;;;4974933;28;20149;-63
2023/08/13 05:37:58;;;;;;;10.32;4.07;;;18.60;99.90;;;;;;4974897;28;20150;-63
2023/08/13 05:40:24;;;;;;;8.25;3.92;;;18.80;99.90;;;;;;4991974;28;20054;-62
2023/08/13 05:42:51;;;;;;;10.30;3.80;;;19.10;99.90;;;;;;4992077;28;20065;-62
2023/08/13 05:45:18;;;;;;;9.95;3.60;;;19.00;99.90;;;;;;5007284;28;20058;-62
2023/08/13 05:47:44;;;;;;;10.30;4.03;;;18.90;99.90;;;;;;4993462;28;20454;-63
2023/08/13 05:50:10;;;;;;;7.60;3.30;;;18.70;99.90;;;;;;4994088;28;20415;-63
2023/08/13 05:52:36;;;;;;;11.57;3.63;;;18.90;99.90;;;;;;5011177;28;20124;-63
2023/08/13 05:55:03;;;;;;;9.88;3.40;;;19.60;99.90;;;;;;4997575;28;20069;-63
2023/08/13 05:57:29;;;;;;;9.07;3.78;;;20.40;99.90;;;;;;5014865;28;20124;-64
2023/08/13 05:59:55;;;;;;;8.77;3.15;;;21.00;99.90;;;;;;5015180;28;20053;-63
2023/08/13 06:02:22;;;;;;;9.77;3.72;;;21.00;99.90;;;;;;5014909;28;20386;-63
2023/08/13 06:04:50;;;;;;;10.18;3.50;;;21.30;99.90;;;;;;4996778;28;20437;-64
2023/08/13 06:07:16;;;;;;;8.73;2.95;;;21.50;99.90;;;;;;5014609;28;20093;-63
2023/08/13 06:09:42;;;;;;;11.00;3.42;;;22.00;99.90;;;;;;5014415;28;20138;-63
2023/08/13 06:12:09;;;;;;;7.80;3.05;;;22.20;99.90;;;;;;5014823;28;20050;-63
2023/08/13 06:14:35;;;;;;;8.30;3.38;;;22.30;99.90;;;;;;5014688;28;20057;-64
2023/08/13 06:17:02;;;;;;;9.13;3.47;;;22.00;99.90;;;;;;5014474;28;20042;-63
2023/08/13 06:19:28;;;;;;;8.82;3.63;;;21.60;99.90;;;;;;5014255;28;20451;-63
2023/08/13 06:21:54;;;;;;;6.82;3.20;;;21.50;99.90;;;;;;5014443;28;20049;-63
2023/08/13 06:24:20;;;;;;;11.75;3.47;;;21.90;99.90;;;;;;5014519;28;20084;-62
2023/08/13 06:26:47;;;;;;;8.25;3.17;;;22.50;99.90;;;;;;4996855;28;20137;-64
2023/08/13 06:29:13;;;;;;;9.52;3.38;;;22.50;99.90;;;;;;5014120;28;20180;-63
2023/08/13 06:31:40;;;;;;;8.82;3.47;;;22.80;99.90;;;;;;4996876;28;20410;-64
2023/08/13 06:34:06;;;;;;;6.90;3.30;;;22.80;99.90;;;;;;5014086;28;20062;-63
2023/08/13 06:36:32;;;;;;;11.63;3.33;;;22.30;99.90;;;;;;5014343;28;20133;-63
2023/08/13 06:39:00;;;;;;;10.13;3.63;;;22.10;99.90;;;;;;4996985;28;20061;-64
2023/08/13 06:41:26;;;;;;;7.60;3.05;;;22.50;99.90;;;;;;5014265;28;20050;-62
2023/08/13 06:43:53;;;;;;;9.98;3.28;;;22.30;99.90;;;;;;4975540;28;20379;-62
2023/08/13 06:46:19;;;;;;;7.68;3.45;;;22.20;99.90;;;;;;4977150;28;20093;-63
2023/08/13 06:48:45;;;;;;;10.25;3.05;;;22.00;99.90;;;;;;4994590;28;20375;-63
2023/08/13 06:51:12;;;;;;;8.75;3.15;;;21.50;99.90;;;;;;4977186;28;20113;-63
2023/08/13 06:53:39;;;;;;;8.98;2.95;;;21.20;99.90;;;;;;4994819;28;20046;-64
2023/08/13 06:56:06;;;;;;;8.90;3.13;;;21.50;99.90;;;;;;4993940;28;20093;-63
2023/08/13 06:58:32;;;;;;;8.05;3.17;;;21.90;99.90;;;;;;4961137;28;20450;-63
2023/08/13 07:01:00;;;;;;;8.82;3.30;;;22.20;99.90;;;;;;4994339;28;20061;-63
2023/08/13 07:03:26;;;;;;;9.68;2.70;;;22.80;99.90;;;;;;4976816;28;20062;-63
2023/08/13 07:05:52;;;;;;;9.70;3.25;;;23.10;99.90;;;;;;4990543;28;20038;-63
2023/08/13 07:08:18;;;;;;;8.48;2.83;;;23.20;99.90;;;;;;4994179;28;20105;-63
2023/08/13 07:10:45;;;;;;;7.28;3.13;;;23.40;99.90;;;;;;4993862;28;20112;-63
2023/08/13 07:13:11;;;;;;;10.45;3.13;;;23.50;99.90;;;;;;4994046;28;20064;-62
2023/08/13 07:15:37;;;;;;;11.60;3.50;;;23.10;99.90;;;;;;4993116;28;20050;-63
2023/08/13 07:18:04;;;;;;;9.65;2.95;;;22.90;99.90;;;;;;4993031;28;20390;-62
2023/08/13 07:20:30;;;;;;;7.57;2.95;;;23.10;99.90;;;;;;4993339;28;20065;-63
2023/08/13 07:22:58;;;;;;;9.77;3.22;;;23.10;99.90;;;;;;4993229;28;20400;-62
2023/08/13 07:25:24;;;;;;;8.98;3.85;;;23.10;99.90;;;;;;4993063;28;20136;-63
2023/08/13 07:27:51;;;;;;;10.15;3.47;;;22.90;99.90;;;;;;4994986;28;20109;-61
2023/08/13 07:30:18;;;;;;;10.27;3.35;;;22.70;99.90;;;;;;4993873;28;20046;-62
2023/08/13 07:32:44;;;;;;;9.82;3.50;;;22.60;99.90;;;;;;4999465;28;20112;-62
2023/08/13 07:35:12;;;;;;;8.70;3.20;;;22.40;99.90;;;;;;4999517;28;20057;-63
2023/08/13 07:37:38;;;;;;;10.48;3.35;;;22.50;99.90;;;;;;4993584;28;20148;-63
2023/08/13 07:40:07;;;;;;;12.38;3.50;;;22.50;99.90;;;;;;4976391;28;20057;-63
2023/08/13 07:42:34;;;;;;;7.15;3.92;;;22.30;99.90;;;;;;4975933;28;20112;-63
2023/08/13 07:45:01;;;;;;;8.43;3.38;;;22.40;99.90;;;;;;5006305;28;20053;-60
2023/08/13 07:47:27;;;;;;;8.80;3.20;;;22.30;99.90;;;;;;5012438;28;20498;-63
2023/08/13 07:49:54;;;;;;;7.45;3.35;;;22.10;99.90;;;;;;5012739;28;20037;-61
2023/08/13 07:52:20;;;;;;;11.32;3.78;;;22.10;99.90;;;;;;4995268;28;20060;-61
2023/08/13 07:54:46;;;;;;;9.77;3.17;;;21.90;99.90;;;;;;5012107;28;20474;-61
2023/08/13 07:57:13;;;;;;;10.40;2.97;;;22.00;99.90;;;;;;5010120;28;20049;-61
2023/08/13 07:59:39;;;;;;;6.82;3.08;;;21.90;99.90;;;;;;5012318;28;20064;-63
2023/08/13 08:02:05;;;;;;;8.90;3.03;;;22.00;99.90;;;;;;5012618;28;20118;-61
2023/08/13 08:04:32;;;;;;;8.00;2.90;;;22.00;99.90;;;;;;5012624;28;20053;-61
2023/08/13 08:06:58;;;;;;;8.18;2.60;;;22.00;99.90;;;;;;5012966;28;20092;-63
2023/08/13 08:09:30;;;;;;;8.15;2.80;;;22.20;99.90;;;;;;5011941;28;20537;-61
2023/08/13 08:11:56;;;;;;;8.45;3.08;;;22.30;99.90;;;;;;5011193;28;20111;-62
2023/08/13 08:14:23;;;;;;;7.43;2.88;;;22.20;99.90;;;;;;5011404;28;20046;-62
2023/08/13 08:16:52;;;;;;;9.00;2.47;;;22.30;99.90;;;;;;5010161;28;20056;-64
2023/08/13 08:19:18;;;;;;;7.20;2.65;;;22.50;99.90;;;;;;5010549;28;20433;-61
2023/08/13 08:21:45;;;;;;;12.43;3.60;;;22.70;99.90;;;;;;4993807;28;20042;-62
2023/08/13 08:24:11;;;;;;;10.25;2.80;;;22.70;99.90;;;;;;4992728;28;20294;-63
2023/08/13 08:26:37;;;;;;;8.95;2.78;;;22.70;99.90;;;;;;4994167;28;20112;-61
2023/08/13 08:29:04;;;;;;;11.20;3.45;;;22.50;99.90;;;;;;5011552;28;20046;-61
2023/08/13 08:31:30;;;;;;;5.75;2.72;;;22.70;99.90;;;;;;4990801;28;20045;-61
2023/08/13 08:33:56;;;;;;;9.10;3.40;;;22.70;99.90;;;;;;5010962;28;20054;-62
2023/08/13 08:36:24;;;;;;;7.60;2.70;;;22.50;99.90;;;;;;5010822;28;20053;-63
2023/08/13 08:38:50;;;;;;;8.18;3.08;;;22.40;99.90;;;;;;5010761;28;20071;-62
2023/08/13 08:41:18;;;;;;;7.88;3.00;;;22.60;99.90;;;;;;5010919;28;20112;-63
2023/08/13 08:43:49;;;;;;;7.28;2.53;;;22.80;99.90;;;;;;5010151;28;20133;-63
2023/08/13 08:46:16;;;;;;;7.80;2.95;;;22.80;99.90;;;;;;4993376;28;20057;-62
2023/08/13 08:48:42;;;;;;;7.47;2.85;;;22.80;99.90;;;;;;5010407;28;20367;-62
2023/08/13 08:51:09;;;;;;;8.60;2.90;;;22.70;99.90;;;;;;4990366;28;20053;-63
2023/08/13 08:53:37;;;;;;;7.28;3.05;;;22.80;99.90;;;;;;4990907;28;20081;-62
2023/08/13 08:56:06;;;;;;;7.63;2.60;;;22.80;99.90;;;;;;4974178;28;20050;-63
2023/08/13 08:58:36;;;;;;;5.53;2.28;;;22.90;99.90;;;;;;4999110;28;20050;-63
2023/08/13 09:01:03;;;;;;;5.00;2.45;;;22.90;99.90;;;;;;5010834;28;20083;-63
2023/08/13 09:03:31;;;;;;;7.93;2.53;;;22.80;99.90;;;;;;4991873;28;20042;-63
2023/08/13 09:05:58;;;;;;;7.95;2.72;;;22.50;99.90;;;;;;5010977;28;20046;-62
2023/08/13 09:08:25;;;;;;;6.93;2.80;;;22.60;99.90;;;;;;5010809;28;20042;-63
2023/08/13 09:10:53;;;;;;;9.23;2.75;;;22.90;99.90;;;;;;5010833;28;20137;-62
2023/08/13 09:13:20;;;;;;;7.88;2.28;;;22.90;99.90;;;;;;5010812;28;20495;-62
2023/08/13 09:15:50;;;;;;;6.30;2.03;;;22.90;99.90;;;;;;5010733;28;20334;-62
2023/08/13 09:18:16;;;;;;;5.20;1.83;;;22.90;99.90;;;;;;5010672;28;20137;-63
2023/08/13 09:20:48;;;;;;;5.68;1.98;;;23.10;99.90;;;;;;5010274;28;20068;-62
2023/08/13 09:23:22;;;;;;;5.05;1.92;;;23.40;99.90;;;;;;5010511;28;20041;-62
2023/08/13 09:25:53;;;;;;;3.90;1.83;;;23.20;99.90;;;;;;5008283;28;20130;-62
2023/08/13 09:28:21;;;;;;;5.95;1.98;;;23.30;99.90;;;;;;5010995;28;20045;-62
2023/08/13 09:30:48;;;;;;;3.58;2.00;;;23.20;99.90;;;;;;5014410;28;20356;-61
2023/08/13 09:33:16;;;;;;;6.38;2.00;;;23.20;99.90;;;;;;5014167;28;20050;-62
2023/08/13 09:35:44;;;;;;;6.78;1.70;;;23.20;99.90;;;;;;5013757;28;20061;-63
2023/08/13 09:38:11;;;;;;;4.70;1.92;;;23.10;99.90;;;;;;4996218;28;20351;-62
2023/08/13 09:40:38;;;;;;;5.35;1.90;;;23.00;99.90;;;;;;5013837;28;20049;-62
2023/08/13 09:43:09;;;;;;;4.57;2.00;;;23.10;99.90;;;;;;5014514;28;20053;-62
2023/08/13 09:45:36;;;;;;;4.88;1.80;;;23.20;99.90;;;;;;4996050;28;20069;-62
2023/08/13 09:48:05;;;;;;;5.65;1.80;;;23.10;99.90;;;;;;4996334;28;20057;-62
2023/08/13 09:50:40;;;;;;;4.57;2.00;;;23.20;99.90;;;;;;5014280;28;20060;-62
2023/08/13 09:53:13;;;;;;;4.00;1.48;;;23.20;99.90;;;;;;5012189;28;20501;-61
2023/08/13 09:55:59;;;;;;;3.10;1.63;;;23.20;99.90;;;;;;5013458;28;20054;-61
2023/08/13 09:58:27;;;;;;;6.38;1.83;;;23.30;99.90;;;;;;5011514;28;20473;-61
2023/08/13 10:00:57;;;;;;;4.10;1.63;;;23.60;99.90;;;;;;5014185;28;20109;-62
2023/08/13 10:03:24;;;;;;;3.72;1.48;;;23.60;99.90;;;;;;5010960;28;20296;-62
2023/08/13 10:05:51;;;;;;;3.72;1.63;;;23.60;99.90;;;;;;5013384;28;20442;-63
2023/08/13 10:08:20;;;;;;;4.18;1.48;;;23.80;99.90;;;;;;4996213;28;20046;-62
2023/08/13 10:10:47;;;;;;;4.10;1.50;;;23.80;99.90;;;;;;5033741;28;20045;-63
2023/08/13 10:13:14;;;;;;;6.80;1.50;;;23.70;99.90;;;;;;5033671;28;20074;-62
2023/08/13 10:15:42;;;;;;;4.80;1.50;;;23.50;99.90;;;;;;5015936;28;20067;-62
2023/08/13 10:18:10;;;;;;;6.63;1.80;;;23.50;99.90;;;;;;4987333;28;20567;-62
2023/08/13 10:20:36;;;;;;;4.22;1.50;;;23.60;99.90;;;;;;5012405;28;20383;-62
2023/08/13 10:23:09;;;;;;;4.82;1.70;;;23.70;99.90;;;;;;5013222;28;20137;-62
2023/08/13 10:25:38;;;;;;;4.60;1.58;;;23.70;99.90;;;;;;5010436;28;20065;-62
2023/08/13 10:28:34;;;;;;;6.40;1.73;;;23.90;99.90;;;;;;5013036;28;20076;-62
2023/08/13 10:31:29;;;;;;;5.90;1.45;;;24.10;99.90;;;;;;4996671;28;20370;-62
2023/08/13 10:34:11;;;;;;;5.03;1.83;;;23.90;99.90;;;;;;4993257;28;20053;-62
2023/08/13 10:36:52;;;;;;;6.80;1.92;;;24.10;99.90;;;;;;5011697;28;20049;-62
2023/08/13 10:39:31;;;;;;;5.57;1.73;;;24.10;99.90;;;;;;5010182;28;20046;-62
2023/08/13 10:41:58;;;;;;;5.80;1.65;;;24.10;99.90;;;;;;5010910;28;20458;-62
2023/08/13 10:44:28;;;;;;;5.57;1.40;;;24.10;99.90;;;;;;4995567;28;20048;-63
2023/08/13 10:46:57;;;;;;;3.72;1.63;;;24.00;99.90;;;;;;5013370;28;20038;-63
2023/08/13 10:49:26;;;;;;;5.15;1.73;;;24.00;99.90;;;;;;4993362;28;20050;-62
2023/08/13 10:51:54;;;;;;;6.18;1.95;;;23.90;99.90;;;;;;4995332;28;20108;-62
2023/08/13 10:54:25;;;;;;;4.43;1.80;;;23.80;99.90;;;;;;4990232;28;20116;-62
2023/08/13 10:56:56;;;;;;;;;;;23.90;99.90;;;;;;5013522;28;20318;-63
2023/08/13 10:59:40;;;;;;;5.72;1.95;;;23.90;99.90;;;;;;5006834;28;20365;-62
2023/08/13 11:02:21;;;;;;;5.25;2.00;;;24.00;99.90;;;;;;5012624;28;20418;-63
2023/08/13 11:04:49;;;;;;;5.80;1.85;;;24.10;99.90;;;;;;5011865;28;20116;-60
2023/08/13 11:07:16;;;;;;;7.32;2.13;;;24.00;99.90;;;;;;4995095;28;20466;-63
2023/08/13 11:09:42;;;;;;;4.97;2.05;;;24.10;99.90;;;;;;4995281;28;20097;-63
2023/08/13 11:12:10;;;;;;;6.82;2.35;;;24.20;99.90;;;;;;4995551;28;20042;-62
2023/08/13 11:14:37;;;;;;;6.63;2.10;;;24.30;99.90;;;;;;4995106;28;20112;-62
2023/08/13 11:17:04;;;;;;;5.70;2.15;;;24.30;99.90;;;;;;4995984;28;20101;-63
2023/08/13 11:19:31;;;;;;;4.05;1.83;;;24.30;99.90;;;;;;5012578;28;20050;-63
2023/08/13 11:21:59;;;;;;;5.53;2.10;;;24.40;99.90;;;;;;5012841;28;20046;-63
2023/08/13 11:24:25;;;;;;;6.22;2.20;;;24.40;99.90;;;;;;4993616;28;20050;-62
2023/08/13 11:26:52;;;;;;;3.58;1.98;;;24.30;99.90;;;;;;5016772;28;20077;-62
2023/08/13 11:29:20;;;;;;;6.25;2.33;;;24.40;99.90;;;;;;5010773;28;20520;-63
2023/08/13 11:31:47;;;;;;;6.57;2.25;;;24.30;99.90;;;;;;4995507;28;20049;-63
2023/08/13 11:34:16;;;;;;;5.38;1.85;;;24.20;99.90;;;;;;4994526;28;20061;-61
2023/08/13 11:36:49;;;;;;;7.72;2.08;;;24.10;99.90;;;;;;4992773;28;20450;-63
2023/08/13 11:39:18;;;;;;;5.15;2.30;;;24.00;99.90;;;;;;5011017;28;20366;-62
2023/08/13 11:41:45;;;;;;;5.65;2.28;;;24.00;99.90;;;;;;5013317;28;20102;-62
2023/08/13 11:44:13;;;;;;;8.13;2.63;;;23.90;99.90;;;;;;5028173;28;20050;-62
2023/08/13 11:46:56;;;;;;;7.13;2.58;;;23.90;99.90;;;;;;4996349;28;20046;-61
2023/08/13 11:49:24;;;;;;;6.65;2.72;;;24.10;99.90;;;;;;5013478;28;20099;-61
2023/08/13 11:51:50;;;;;;;6.47;2.22;;;24.00;99.90;;;;;;5013193;28;20072;-62
2023/08/13 11:54:19;;;;;;;7.75;2.53;;;24.00;99.90;;;;;;5012094;28;20053;-62
2023/08/13 11:56:47;;;;;;;9.15;2.80;;;24.10;99.90;;;;;;4980019;28;20053;-62
2023/08/13 11:59:13;;;;;;;8.05;2.72;;;24.20;99.90;;;;;;4995649;28;20058;-62
2023/08/13 12:01:40;;;;;;;6.05;2.30;;;24.10;99.90;;;;;;5013143;28;20065;-62
2023/08/13 12:04:07;;;;;;;6.53;2.25;;;24.30;99.90;;;;;;5012642;28;20057;-63
2023/08/13 12:06:34;;;;;;;5.93;2.55;;;24.10;99.90;;;;;;5013018;28;20042;-62
2023/08/13 12:09:04;;;;;;;8.43;2.65;;;24.20;99.90;;;;;;4996350;28;20052;-63
2023/08/13 12:11:31;;;;;;;8.35;2.80;;;24.10;99.90;;;;;;5012612;28;20346;-63
2023/08/13 12:14:05;;;;;;;8.40;2.58;;;24.20;99.90;;;;;;5011972;28;20516;-63
2023/08/13 12:16:31;;;;;;;9.52;2.50;;;24.20;99.90;;;;;;5013342;28;20143;-62
2023/08/13 12:18:57;;;;;;;7.40;2.70;;;24.30;99.90;;;;;;5011899;28;20474;-62
2023/08/13 12:21:24;;;;;;;9.55;2.47;;;24.30;99.90;;;;;;5012254;28;20049;-63
2023/08/13 12:23:50;;;;;;;7.47;2.38;;;24.30;99.90;;;;;;5012135;28;20050;-62
2023/08/13 12:26:16;;;;;;;7.75;2.40;;;24.40;99.90;;;;;;5011815;28;20429;-62
2023/08/13 12:28:50;;;;;;;5.53;2.50;;;24.60;99.90;;;;;;5011616;28;20041;-62
2023/08/13 12:31:18;;;;;;;7.03;3.10;;;24.80;99.90;;;;;;5012727;28;20042;-63
2023/08/13 12:33:46;;;;;;;6.20;2.53;;;24.60;99.90;;;;;;4978189;28;20069;-63
2023/08/13 12:36:12;;;;;;;7.45;2.40;;;24.60;99.90;;;;;;4994572;28;20056;-63
2023/08/13 12:38:41;;;;;;;6.47;2.40;;;25.00;99.90;;;;;;5012571;28;20122;-63
2023/08/13 12:41:08;;;;;;;8.43;2.45;;;25.00;99.90;;;;;;5015068;28;20422;-63
2023/08/13 12:43:36;;;;;;;6.28;2.45;;;24.90;99.90;;;;;;5031497;28;20378;-63
2023/08/13 12:46:07;;;;;;;7.45;2.75;;;24.90;99.90;;;;;;5014421;28;20041;-62
2023/08/13 12:48:35;;;;;;;6.60;2.60;;;24.90;99.90;;;;;;5008169;28;20071;-61